sensor_id;sensor_type;location;lat;lon;timestamp;P1;durP1;ratioP1;P2;durP2;ratioP2
55150;SDS011;41041;43.162;20.538;2022-11-15T07:33:19;99.55;;;64.22;;
55150;SDS011;41041;43.162;20.538;2022-11-15T07:35:45;106.43;;;63.42;;
55150;SDS011;41041;43.162;20.538;2022-11-15T09:34:54;31.25;;;19.58;;
55150;SDS011;41041;43.162;20.538;2022-11-15T09:37:20;34.13;;;20.05;;
55150;SDS011;41041;43.162;20.538;2022-11-15T09:39:55;35.25;;;21.45;;
55150;SDS011;41041;43.162;20.538;2022-11-15T09:51:53;36.10;;;22.75;;
55150;SDS011;41041;43.162;20.538;2022-11-15T09:56:45;36.65;;;22.05;;
55150;SDS011;41041;43.162;20.538;2022-11-15T10:09:09;45.13;;;24.15;;
55150;SDS011;41041;43.162;20.538;2022-11-15T10:11:40;45.25;;;24.20;;
55150;SDS011;41041;43.162;20.538;2022-11-15T10:14:11;45.05;;;22.58;;
55150;SDS011;41041;43.162;20.538;2022-11-15T10:24:42;39.03;;;21.70;;
55150;SDS011;41041;43.162;20.538;2022-11-15T10:27:13;34.92;;;17.58;;
55150;SDS011;41041;43.162;20.538;2022-11-15T10:29:49;31.60;;;18.50;;
55150;SDS011;41041;43.162;20.538;2022-11-15T10:32:19;29.23;;;15.90;;
55150;SDS011;41041;43.162;20.538;2022-11-15T10:34:46;29.67;;;16.30;;
55150;SDS011;41041;43.162;20.538;2022-11-15T10:40:18;31.77;;;15.73;;
55150;SDS011;41041;43.162;20.538;2022-11-15T10:42:44;26.38;;;15.68;;
55150;SDS011;41041;43.162;20.538;2022-11-15T10:45:24;23.40;;;14.88;;
55150;SDS011;41041;43.162;20.538;2022-11-15T10:50:54;27.23;;;14.57;;
55150;SDS011;41041;43.162;20.538;2022-11-15T10:55:48;30.17;;;16.30;;
55150;SDS011;41041;43.162;20.538;2022-11-15T10:58:35;30.23;;;17.38;;
55150;SDS011;41041;43.162;20.538;2022-11-15T11:01:15;47.42;;;23.25;;
55150;SDS011;41041;43.162;20.538;2022-11-15T11:06:58;23.30;;;11.68;;
55150;SDS011;41041;43.162;20.538;2022-11-15T11:10:25;25.40;;;13.35;;
55150;SDS011;41041;43.162;20.538;2022-11-15T11:12:21;53.00;;;27.88;;
55150;SDS011;41041;43.162;20.538;2022-11-15T11:28:25;41.40;;;18.83;;
55150;SDS011;41041;43.162;20.538;2022-11-15T11:31:03;28.08;;;14.02;;
55150;SDS011;41041;43.162;20.538;2022-11-15T11:33:44;30.65;;;14.15;;
55150;SDS011;41041;43.162;20.538;2022-11-15T11:42:03;29.50;;;12.85;;
55150;SDS011;41041;43.162;20.538;2022-11-15T11:47:11;19.23;;;10.30;;
55150;SDS011;41041;43.162;20.538;2022-11-15T11:49:44;37.72;;;21.02;;
55150;SDS011;41041;43.162;20.538;2022-11-15T11:52:21;18.75;;;9.23;;
55150;SDS011;41041;43.162;20.538;2022-11-15T11:55:12;25.52;;;11.40;;
55150;SDS011;41041;43.162;20.538;2022-11-15T12:00:33;21.08;;;11.00;;
55150;SDS011;41041;43.162;20.538;2022-11-15T12:05:31;20.73;;;13.20;;
55150;SDS011;41041;43.162;20.538;2022-11-15T12:08:04;21.30;;;12.98;;
55150;SDS011;41041;43.162;20.538;2022-11-15T12:10:35;24.45;;;13.57;;
55150;SDS011;41041;43.162;20.538;2022-11-15T12:13:03;25.17;;;14.25;;
55150;SDS011;41041;43.162;20.538;2022-11-15T12:15:32;18.40;;;12.93;;
55150;SDS011;41041;43.162;20.538;2022-11-15T12:18:01;24.02;;;13.48;;
55150;SDS011;41041;43.162;20.538;2022-11-15T12:20:29;19.60;;;11.90;;
55150;SDS011;41041;43.162;20.538;2022-11-15T12:25:27;17.70;;;10.98;;
55150;SDS011;41041;43.162;20.538;2022-11-15T12:30:41;15.02;;;10.25;;
55150;SDS011;41041;43.162;20.538;2022-11-15T12:33:28;21.45;;;12.18;;
55150;SDS011;41041;43.162;20.538;2022-11-15T12:54:57;17.80;;;11.45;;
55150;SDS011;41041;43.162;20.538;2022-11-15T12:57:31;20.65;;;11.88;;
55150;SDS011;41041;43.162;20.538;2022-11-15T12:59:58;24.73;;;13.07;;
55150;SDS011;41041;43.162;20.538;2022-11-15T13:04:54;31.17;;;14.07;;
55150;SDS011;41041;43.162;20.538;2022-11-15T13:13:43;29.13;;;13.93;;
55150;SDS011;41041;43.162;20.538;2022-11-15T13:16:10;26.98;;;14.20;;
55150;SDS011;41041;43.162;20.538;2022-11-15T13:18:42;40.90;;;15.30;;
55150;SDS011;41041;43.162;20.538;2022-11-15T13:21:24;36.58;;;15.15;;
55150;SDS011;41041;43.162;20.538;2022-11-15T13:24:20;22.40;;;14.10;;
55150;SDS011;41041;43.162;20.538;2022-11-15T13:26:46;20.67;;;13.32;;
55150;SDS011;41041;43.162;20.538;2022-11-15T13:29:14;19.73;;;13.55;;
55150;SDS011;41041;43.162;20.538;2022-11-15T13:31:42;21.92;;;14.18;;
55150;SDS011;41041;43.162;20.538;2022-11-15T13:36:55;44.40;;;27.58;;
55150;SDS011;41041;43.162;20.538;2022-11-15T13:39:26;44.83;;;29.38;;
55150;SDS011;41041;43.162;20.538;2022-11-15T13:41:52;32.33;;;20.80;;
55150;SDS011;41041;43.162;20.538;2022-11-15T13:44:24;25.75;;;15.13;;
55150;SDS011;41041;43.162;20.538;2022-11-15T13:47:35;25.05;;;15.20;;
55150;SDS011;41041;43.162;20.538;2022-11-15T13:49:40;29.10;;;16.48;;
55150;SDS011;41041;43.162;20.538;2022-11-15T13:55:20;41.88;;;20.27;;
55150;SDS011;41041;43.162;20.538;2022-11-15T14:05:45;40.70;;;23.27;;
55150;SDS011;41041;43.162;20.538;2022-11-15T14:08:27;56.45;;;28.63;;
55150;SDS011;41041;43.162;20.538;2022-11-15T14:17:38;53.35;;;28.60;;
55150;SDS011;41041;43.162;20.538;2022-11-15T14:23:19;72.70;;;35.38;;
55150;SDS011;41041;43.162;20.538;2022-11-15T14:25:53;48.95;;;24.20;;
55150;SDS011;41041;43.162;20.538;2022-11-15T14:30:46;43.90;;;24.85;;
55150;SDS011;41041;43.162;20.538;2022-11-15T14:33:34;50.45;;;27.10;;
55150;SDS011;41041;43.162;20.538;2022-11-15T14:38:36;65.80;;;33.78;;
55150;SDS011;41041;43.162;20.538;2022-11-15T14:44:06;39.63;;;21.58;;
55150;SDS011;41041;43.162;20.538;2022-11-15T14:46:32;40.85;;;20.63;;
55150;SDS011;41041;43.162;20.538;2022-11-15T14:49:01;42.83;;;24.60;;
55150;SDS011;41041;43.162;20.538;2022-11-15T17:08:46;86.20;;;47.45;;
55150;SDS011;41041;43.162;20.538;2022-11-15T17:11:17;75.82;;;44.35;;
55150;SDS011;41041;43.162;20.538;2022-11-15T17:31:54;76.53;;;43.38;;
55150;SDS011;41041;43.162;20.538;2022-11-15T17:34:28;78.10;;;40.08;;
55150;SDS011;41041;43.162;20.538;2022-11-15T17:37:00;67.03;;;36.67;;
55150;SDS011;41041;43.162;20.538;2022-11-15T17:39:26;54.95;;;32.33;;
55150;SDS011;41041;43.162;20.538;2022-11-15T17:41:55;55.28;;;31.77;;
55150;SDS011;41041;43.162;20.538;2022-11-15T17:46:57;76.20;;;39.45;;
55150;SDS011;41041;43.162;20.538;2022-11-15T17:49:23;118.05;;;49.72;;
55150;SDS011;41041;43.162;20.538;2022-11-15T17:51:49;116.07;;;56.53;;
55150;SDS011;41041;43.162;20.538;2022-11-15T17:54:15;122.88;;;57.25;;
55150;SDS011;41041;43.162;20.538;2022-11-15T17:56:41;64.50;;;37.05;;
55150;SDS011;41041;43.162;20.538;2022-11-15T17:59:08;62.80;;;34.08;;
55150;SDS011;41041;43.162;20.538;2022-11-15T18:01:35;60.72;;;34.03;;
55150;SDS011;41041;43.162;20.538;2022-11-15T18:04:02;57.65;;;33.95;;
55150;SDS011;41041;43.162;20.538;2022-11-15T18:06:29;58.85;;;33.78;;
55150;SDS011;41041;43.162;20.538;2022-11-15T18:09:05;56.42;;;32.15;;
55150;SDS011;41041;43.162;20.538;2022-11-15T18:11:36;54.90;;;31.80;;
55150;SDS011;41041;43.162;20.538;2022-11-15T18:14:04;53.03;;;30.98;;
55150;SDS011;41041;43.162;20.538;2022-11-15T18:19:34;68.30;;;36.22;;
55150;SDS011;41041;43.162;20.538;2022-11-15T18:22:00;63.25;;;35.75;;
55150;SDS011;41041;43.162;20.538;2022-11-15T18:24:29;98.80;;;58.03;;
55150;SDS011;41041;43.162;20.538;2022-11-15T18:26:55;98.47;;;54.22;;
55150;SDS011;41041;43.162;20.538;2022-11-15T18:29:21;81.18;;;42.22;;
55150;SDS011;41041;43.162;20.538;2022-11-15T18:31:48;61.47;;;34.33;;
55150;SDS011;41041;43.162;20.538;2022-11-15T18:34:19;80.93;;;45.78;;
55150;SDS011;41041;43.162;20.538;2022-11-15T18:36:45;73.60;;;40.92;;
55150;SDS011;41041;43.162;20.538;2022-11-15T18:42:15;70.10;;;36.97;;
55150;SDS011;41041;43.162;20.538;2022-11-15T18:44:41;67.38;;;35.38;;
55150;SDS011;41041;43.162;20.538;2022-11-15T18:47:07;62.80;;;37.13;;
55150;SDS011;41041;43.162;20.538;2022-11-15T18:49:33;69.78;;;41.20;;
55150;SDS011;41041;43.162;20.538;2022-11-15T18:52:00;51.35;;;29.15;;
55150;SDS011;41041;43.162;20.538;2022-11-15T18:54:28;52.28;;;30.42;;
55150;SDS011;41041;43.162;20.538;2022-11-15T18:56:54;55.85;;;30.10;;
55150;SDS011;41041;43.162;20.538;2022-11-15T18:59:20;54.03;;;32.47;;
55150;SDS011;41041;43.162;20.538;2022-11-15T19:01:46;58.60;;;32.75;;
55150;SDS011;41041;43.162;20.538;2022-11-15T19:04:16;49.85;;;29.80;;
55150;SDS011;41041;43.162;20.538;2022-11-15T19:06:46;49.75;;;28.88;;
55150;SDS011;41041;43.162;20.538;2022-11-15T19:12:23;49.42;;;28.02;;
55150;SDS011;41041;43.162;20.538;2022-11-15T19:14:49;50.72;;;25.38;;
55150;SDS011;41041;43.162;20.538;2022-11-15T19:17:15;37.63;;;22.50;;
55150;SDS011;41041;43.162;20.538;2022-11-15T19:22:47;39.45;;;22.85;;
55150;SDS011;41041;43.162;20.538;2022-11-15T19:25:13;75.05;;;40.25;;
55150;SDS011;41041;43.162;20.538;2022-11-15T19:27:45;65.20;;;33.70;;
55150;SDS011;41041;43.162;20.538;2022-11-15T19:30:12;51.70;;;29.05;;
55150;SDS011;41041;43.162;20.538;2022-11-15T19:32:38;65.60;;;39.72;;
55150;SDS011;41041;43.162;20.538;2022-11-15T19:35:04;44.25;;;26.33;;
55150;SDS011;41041;43.162;20.538;2022-11-15T19:37:29;56.38;;;33.90;;
55150;SDS011;41041;43.162;20.538;2022-11-15T19:39:55;52.03;;;29.25;;
55150;SDS011;41041;43.162;20.538;2022-11-15T19:42:24;56.15;;;26.70;;
55150;SDS011;41041;43.162;20.538;2022-11-15T19:47:54;46.15;;;27.38;;
55150;SDS011;41041;43.162;20.538;2022-11-15T19:50:20;62.33;;;35.33;;
55150;SDS011;41041;43.162;20.538;2022-11-15T19:52:49;48.67;;;30.92;;
55150;SDS011;41041;43.162;20.538;2022-11-15T19:55:15;57.95;;;30.50;;
55150;SDS011;41041;43.162;20.538;2022-11-15T19:57:41;59.92;;;33.13;;
55150;SDS011;41041;43.162;20.538;2022-11-15T20:00:08;65.15;;;36.22;;
55150;SDS011;41041;43.162;20.538;2022-11-15T20:02:37;69.40;;;36.67;;
55150;SDS011;41041;43.162;20.538;2022-11-15T20:05:03;69.47;;;42.38;;
55150;SDS011;41041;43.162;20.538;2022-11-15T20:07:50;63.65;;;37.55;;
55150;SDS011;41041;43.162;20.538;2022-11-15T20:10:18;46.10;;;27.85;;
55150;SDS011;41041;43.162;20.538;2022-11-15T20:12:49;46.38;;;28.02;;
55150;SDS011;41041;43.162;20.538;2022-11-15T20:15:15;47.25;;;28.17;;
55150;SDS011;41041;43.162;20.538;2022-11-15T20:17:42;52.97;;;31.95;;
55150;SDS011;41041;43.162;20.538;2022-11-15T20:20:08;54.78;;;32.78;;
55150;SDS011;41041;43.162;20.538;2022-11-15T20:25:11;57.55;;;33.88;;
55150;SDS011;41041;43.162;20.538;2022-11-15T20:27:58;43.72;;;26.83;;
55150;SDS011;41041;43.162;20.538;2022-11-15T20:30:24;41.85;;;24.67;;
55150;SDS011;41041;43.162;20.538;2022-11-15T20:44:12;27.48;;;16.90;;
55150;SDS011;41041;43.162;20.538;2022-11-15T20:46:38;30.17;;;17.15;;
55150;SDS011;41041;43.162;20.538;2022-11-15T20:49:07;28.02;;;15.70;;
55150;SDS011;41041;43.162;20.538;2022-11-15T21:02:38;60.10;;;37.00;;
55150;SDS011;41041;43.162;20.538;2022-11-15T21:05:04;46.88;;;26.65;;
55150;SDS011;41041;43.162;20.538;2022-11-15T21:07:31;46.58;;;27.50;;
